Time;durP1;ratioP1;P1;durP2;ratioP2;P2;SDS_P1;SDS_P2;PMS_P1;PMS_P2;Temp;Humidity;BMP_temperature;BMP_pressure;BME280_temperature;BME280_humidity;BME280_pressure;Samples;Min_cycle;Max_cycle;Signal;HPM_P1;HPM_P2
2022/10/27 00:01:41;;;;;;;7.67;2.50;;;15.10;99.90;;;;;;5098072;28;20661;-59
2022/10/27 00:04:10;;;;;;;3.40;2.63;;;15.00;99.90;;;;;;5116791;28;20198;-60
2022/10/27 00:06:38;;;;;;;2.70;2.50;;;15.00;99.90;;;;;;5116179;28;20541;-59
2022/10/27 00:09:06;;;;;;;6.47;2.70;;;15.00;99.90;;;;;;5115803;28;20191;-59
2022/10/27 00:11:34;;;;;;;5.00;2.20;;;14.90;99.90;;;;;;5115993;28;20318;-60
2022/10/27 00:14:03;;;;;;;4.33;2.57;;;14.90;99.90;;;;;;5115893;28;20191;-59
2022/10/27 00:16:33;;;;;;;5.40;2.73;;;14.80;99.90;;;;;;5115942;28;20218;-59
2022/10/27 00:19:02;;;;;;;5.77;2.60;;;14.70;99.90;;;;;;5116136;28;20199;-57
2022/10/27 00:21:30;;;;;;;4.50;2.73;;;14.70;99.90;;;;;;5097815;28;20653;-57
2022/10/27 00:23:58;;;;;;;4.07;2.80;;;14.70;99.90;;;;;;5116027;28;20273;-57
2022/10/27 00:26:26;;;;;;;6.43;2.50;;;14.60;99.90;;;;;;5116053;28;20187;-57
2022/10/27 00:28:54;;;;;;;2.90;2.53;;;14.60;99.90;;;;;;5116031;28;20193;-57
2022/10/27 00:31:23;;;;;;;5.00;2.70;;;14.60;99.90;;;;;;5097651;28;20553;-57
2022/10/27 00:33:52;;;;;;;7.50;2.50;;;14.60;99.90;;;;;;5115911;28;20657;-57
2022/10/27 00:36:23;;;;;;;5.07;2.53;;;14.60;99.90;;;;;;5115570;28;20217;-57
2022/10/27 00:38:53;;;;;;;5.37;2.23;;;14.60;99.90;;;;;;5115651;28;20202;-57
2022/10/27 00:41:27;;;;;;;2.87;2.53;;;14.60;99.90;;;;;;5110409;28;20542;-57
2022/10/27 00:43:57;;;;;;;7.50;2.60;;;14.60;99.90;;;;;;5097674;28;20205;-57
2022/10/27 00:46:34;;;;;;;6.30;2.47;;;14.60;99.90;;;;;;5115607;28;20183;-58
2022/10/27 00:49:08;;;;;;;2.87;2.30;;;14.60;99.90;;;;;;5115568;28;20191;-58
2022/10/27 00:51:38;;;;;;;7.10;2.50;;;14.60;99.90;;;;;;5115728;28;20191;-58
2022/10/27 00:54:07;;;;;;;5.37;2.73;;;14.60;99.90;;;;;;5097311;28;20198;-58
2022/10/27 00:56:36;;;;;;;5.80;2.60;;;14.60;99.90;;;;;;5097111;28;20217;-58
2022/10/27 00:59:05;;;;;;;6.47;3.03;;;14.50;99.90;;;;;;5097286;28;20194;-58
2022/10/27 01:01:38;;;;;;;9.20;2.43;;;14.50;99.90;;;;;;5097043;28;20198;-58
2022/10/27 01:04:09;;;;;;;6.07;2.43;;;14.40;99.90;;;;;;5115836;28;20194;-59
2022/10/27 01:10:32;;;;;;;3.30;2.60;;;14.40;99.90;;;;;;5114612;28;20217;-59
2022/10/27 01:13:01;;;;;;;6.23;2.80;;;14.40;99.90;;;;;;5115728;28;20183;-59
2022/10/27 01:15:45;;;;;;;9.70;2.97;;;14.40;99.90;;;;;;5129539;27;20225;-58
2022/10/27 01:18:23;;;;;;;4.87;2.60;;;14.40;99.90;;;;;;5101548;28;20213;-59
2022/10/27 01:21:44;;;;;;;7.90;3.17;;;14.40;99.90;;;;;;5114771;28;20193;-58
2022/10/27 01:24:55;;;;;;;3.20;2.50;;;14.30;99.90;;;;;;5082803;28;20203;-58
2022/10/27 01:27:36;;;;;;;5.37;2.80;;;14.30;99.90;;;;;;5111230;28;20195;-59
2022/10/27 01:30:09;;;;;;;7.43;2.80;;;14.20;99.90;;;;;;5079730;28;20191;-58
2022/10/27 01:32:48;;;;;;;7.07;2.67;;;14.20;99.90;;;;;;5114912;28;20206;-58
2022/10/27 01:35:26;;;;;;;8.60;3.13;;;14.20;99.90;;;;;;5114559;28;20194;-58
2022/10/27 01:38:02;;;;;;;9.27;2.97;;;14.20;99.90;;;;;;5114823;28;20206;-58
2022/10/27 01:40:35;;;;;;;3.80;2.90;;;14.10;99.90;;;;;;5114425;28;20201;-58
2022/10/27 01:43:09;;;;;;;9.40;3.33;;;14.10;99.90;;;;;;5114589;28;20584;-58
2022/10/27 01:45:39;;;;;;;3.27;3.07;;;14.10;99.90;;;;;;5114391;28;20187;-58
2022/10/27 01:48:10;;;;;;;5.43;3.10;;;14.00;99.90;;;;;;5114480;28;20187;-59
2022/10/27 01:50:40;;;;;;;5.03;3.27;;;14.00;99.90;;;;;;5114476;28;20209;-58
2022/10/27 01:53:29;;;;;;;5.67;2.87;;;13.90;99.90;;;;;;5114169;28;20241;-58
2022/10/27 01:56:14;;;;;;;9.40;3.20;;;13.80;99.90;;;;;;5114017;28;20198;-58
2022/10/27 01:59:03;;;;;;;3.30;3.00;;;13.70;99.90;;;;;;5114056;28;20217;-58
2022/10/27 02:01:47;;;;;;;5.00;3.27;;;13.60;99.90;;;;;;5114567;28;20610;-58
2022/10/27 02:04:22;;;;;;;6.03;3.23;;;13.60;99.90;;;;;;5114222;28;20187;-58
2022/10/27 02:06:58;;;;;;;7.23;2.93;;;13.60;99.90;;;;;;5114444;28;20667;-58
2022/10/27 02:09:36;;;;;;;5.03;3.00;;;13.60;99.90;;;;;;5114082;28;20175;-58
2022/10/27 02:12:09;;;;;;;5.83;3.23;;;13.70;99.90;;;;;;5113864;28;20182;-58
2022/10/27 02:14:42;;;;;;;6.43;3.27;;;13.80;99.90;;;;;;5092211;28;20191;-57
2022/10/27 02:17:13;;;;;;;8.07;3.30;;;13.80;99.90;;;;;;5105656;28;20216;-57
2022/10/27 02:19:47;;;;;;;6.93;3.10;;;13.90;99.90;;;;;;5114100;28;20671;-58
2022/10/27 02:27:05;;;;;;;6.60;3.53;;;13.90;99.90;;;;;;5094016;28;20616;-57
2022/10/27 02:29:37;;;;;;;4.87;3.13;;;13.90;99.90;;;;;;5093524;28;20200;-57
2022/10/27 02:32:09;;;;;;;7.23;3.60;;;13.90;99.90;;;;;;5075631;28;20213;-57
2022/10/27 02:34:38;;;;;;;4.93;3.47;;;13.90;99.90;;;;;;5093464;28;20187;-58
2022/10/27 02:37:09;;;;;;;7.00;3.90;;;14.00;99.90;;;;;;5112206;28;20212;-58
2022/10/27 02:39:37;;;;;;;7.60;3.90;;;14.00;99.90;;;;;;5078885;28;20194;-58
2022/10/27 02:42:06;;;;;;;8.37;3.70;;;14.00;99.90;;;;;;5113810;28;20668;-58
2022/10/27 02:44:34;;;;;;;9.03;3.47;;;14.00;99.90;;;;;;5113628;28;20198;-58
2022/10/27 02:47:03;;;;;;;10.67;3.80;;;14.10;99.90;;;;;;5113589;28;20206;-58
2022/10/27 02:49:35;;;;;;;6.23;3.63;;;14.10;99.90;;;;;;5113812;28;20207;-57
2022/10/27 02:52:03;;;;;;;7.70;3.33;;;14.10;99.90;;;;;;5095296;28;20198;-58
2022/10/27 02:54:33;;;;;;;12.10;3.73;;;14.10;99.90;;;;;;5113488;28;20202;-58
2022/10/27 02:57:01;;;;;;;13.43;4.10;;;14.10;99.90;;;;;;5110813;28;20187;-58
2022/10/27 02:59:29;;;;;;;11.80;4.13;;;14.10;99.90;;;;;;5099412;28;20203;-59
2022/10/27 03:01:58;;;;;;;7.47;4.13;;;14.20;99.90;;;;;;5113615;28;20657;-58
2022/10/27 03:04:26;;;;;;;8.63;3.70;;;14.20;99.90;;;;;;5113714;28;20199;-58
2022/10/27 03:06:54;;;;;;;5.60;3.23;;;14.20;99.90;;;;;;5115671;28;20202;-58
2022/10/27 03:09:23;;;;;;;8.87;3.63;;;14.20;99.90;;;;;;5117435;28;20544;-58
2022/10/27 03:11:52;;;;;;;11.87;3.80;;;14.20;99.90;;;;;;5117494;28;20231;-59
2022/10/27 03:14:21;;;;;;;6.90;3.47;;;14.10;99.90;;;;;;5117380;28;20190;-59
2022/10/27 03:16:49;;;;;;;11.40;3.50;;;14.10;99.90;;;;;;5117292;28;20556;-59
2022/10/27 03:19:17;;;;;;;7.73;3.63;;;14.10;99.90;;;;;;5117292;28;20237;-59
2022/10/27 03:21:45;;;;;;;5.17;2.93;;;14.10;99.90;;;;;;5117593;28;20194;-59
2022/10/27 03:24:13;;;;;;;9.40;3.33;;;14.10;99.90;;;;;;5117053;28;20679;-59
2022/10/27 03:26:42;;;;;;;6.40;3.00;;;14.00;99.90;;;;;;5117205;28;20190;-59
2022/10/27 03:29:11;;;;;;;5.37;3.03;;;14.00;99.90;;;;;;5116847;28;20191;-59
2022/10/27 03:31:39;;;;;;;6.33;3.07;;;14.00;99.90;;;;;;5116818;28;20699;-58
2022/10/27 03:34:08;;;;;;;5.53;3.37;;;14.00;99.90;;;;;;5116842;28;20211;-58
2022/10/27 03:36:37;;;;;;;5.00;2.83;;;14.00;99.90;;;;;;5098812;28;20190;-59
2022/10/27 03:39:05;;;;;;;6.40;2.90;;;14.00;99.90;;;;;;5116680;28;20215;-59
2022/10/27 03:41:33;;;;;;;6.03;3.00;;;14.00;99.90;;;;;;5116634;28;20580;-59
2022/10/27 03:44:01;;;;;;;3.27;2.40;;;14.00;99.90;;;;;;5116740;28;20191;-59
2022/10/27 03:46:31;;;;;;;4.67;2.37;;;14.00;99.90;;;;;;5116496;28;20198;-59
2022/10/27 03:48:59;;;;;;;6.20;2.60;;;14.00;99.90;;;;;;5116817;28;20191;-59
2022/10/27 03:51:27;;;;;;;8.03;2.50;;;14.00;99.90;;;;;;5116667;28;20552;-59
2022/10/27 03:53:57;;;;;;;4.97;3.03;;;13.90;99.90;;;;;;5098314;28;20191;-59
2022/10/27 03:56:25;;;;;;;5.00;2.77;;;13.90;99.90;;;;;;5116372;28;20630;-59
2022/10/27 03:58:53;;;;;;;10.00;2.70;;;13.90;99.90;;;;;;5116385;28;20221;-59
2022/10/27 04:01:22;;;;;;;6.17;2.70;;;13.90;99.90;;;;;;5116515;28;20646;-59
2022/10/27 04:04:30;;;;;;;2.67;2.47;;;13.80;99.90;;;;;;5116747;28;20197;-59
2022/10/27 04:07:27;;;;;;;3.87;2.87;;;13.80;99.90;;;;;;5098359;28;20254;-59
2022/10/27 04:09:55;;;;;;;9.90;2.67;;;13.80;99.90;;;;;;5115928;28;20685;-59
2022/10/27 04:12:23;;;;;;;6.17;2.40;;;13.70;99.90;;;;;;5116057;28;20537;-59
2022/10/27 04:15:12;;;;;;;3.80;2.20;;;13.70;99.90;;;;;;5081489;28;20217;-59
2022/10/27 04:17:41;;;;;;;3.17;2.57;;;13.70;99.90;;;;;;5114846;28;20523;-59
2022/10/27 04:20:12;;;;;;;6.17;2.57;;;13.70;99.90;;;;;;5116039;28;20206;-59
2022/10/27 04:22:40;;;;;;;5.67;2.47;;;13.70;99.90;;;;;;5087332;28;20683;-59
2022/10/27 04:25:09;;;;;;;5.17;3.07;;;13.70;99.90;;;;;;5095955;28;20233;-59
2022/10/27 04:27:38;;;;;;;4.53;3.00;;;13.70;99.90;;;;;;5088064;28;20218;-59
2022/10/27 04:30:07;;;;;;;3.07;2.60;;;13.70;99.90;;;;;;5116076;28;20191;-59
2022/10/27 04:32:36;;;;;;;3.70;2.60;;;13.80;99.90;;;;;;5105872;28;20292;-59
2022/10/27 04:35:04;;;;;;;3.67;2.70;;;13.70;99.90;;;;;;5116227;28;20636;-59
2022/10/27 04:37:34;;;;;;;3.67;2.73;;;13.70;99.90;;;;;;5115499;28;20241;-59
2022/10/27 04:40:03;;;;;;;5.10;2.47;;;13.70;99.90;;;;;;5115776;28;20218;-59
2022/10/27 04:42:32;;;;;;;3.90;2.30;;;13.70;99.90;;;;;;5115538;28;20191;-59
2022/10/27 04:45:00;;;;;;;3.03;2.60;;;13.60;99.90;;;;;;5115382;28;20195;-58
2022/10/27 04:47:29;;;;;;;3.03;2.50;;;13.60;99.90;;;;;;5115800;28;20187;-59
2022/10/27 04:49:57;;;;;;;4.83;2.83;;;13.60;99.90;;;;;;5115633;28;20191;-59
2022/10/27 04:52:25;;;;;;;7.40;2.63;;;13.50;99.90;;;;;;5115385;28;20190;-58
2022/10/27 04:54:55;;;;;;;7.07;2.93;;;13.50;99.90;;;;;;5089808;28;20195;-58
2022/10/27 04:57:23;;;;;;;4.23;3.03;;;13.50;99.90;;;;;;5076746;28;20203;-59
2022/10/27 04:59:51;;;;;;;3.43;2.40;;;13.40;99.90;;;;;;5094836;28;20211;-59
2022/10/27 05:02:19;;;;;;;4.67;2.90;;;13.40;99.90;;;;;;5098512;28;20198;-59
2022/10/27 05:04:50;;;;;;;3.43;2.77;;;13.40;99.90;;;;;;5098685;28;20195;-59
2022/10/27 05:07:18;;;;;;;3.10;2.80;;;13.40;99.90;;;;;;5082342;28;20192;-59
2022/10/27 05:09:46;;;;;;;5.90;3.07;;;13.40;99.90;;;;;;5076695;28;20187;-59
2022/10/27 05:12:16;;;;;;;5.80;2.83;;;13.40;99.90;;;;;;5095035;28;20206;-59
2022/10/27 05:14:44;;;;;;;9.23;4.00;;;13.40;99.90;;;;;;5076503;28;20187;-58
2022/10/27 05:17:12;;;;;;;3.90;3.00;;;13.40;99.90;;;;;;5094707;28;20199;-59
2022/10/27 05:19:46;;;;;;;8.20;3.10;;;13.40;99.90;;;;;;5094458;28;20234;-59
2022/10/27 05:22:15;;;;;;;7.60;3.40;;;13.40;99.90;;;;;;5104506;27;20197;-59
2022/10/27 05:24:43;;;;;;;6.40;3.70;;;13.40;99.90;;;;;;5109901;27;20199;-58
2022/10/27 05:27:11;;;;;;;4.67;3.20;;;13.40;99.90;;;;;;5089490;28;20199;-59
2022/10/27 05:29:41;;;;;;;5.80;3.40;;;13.50;99.90;;;;;;5109886;28;20187;-60
2022/10/27 05:32:09;;;;;;;5.60;3.60;;;13.50;99.90;;;;;;5079262;28;20225;-59
2022/10/27 05:34:37;;;;;;;6.80;3.17;;;13.50;99.90;;;;;;5114604;28;20193;-60
2022/10/27 05:37:05;;;;;;;7.77;3.60;;;13.50;99.90;;;;;;5114547;28;20193;-59
2022/10/27 05:39:34;;;;;;;5.07;2.80;;;13.50;99.90;;;;;;5114444;28;20267;-59
2022/10/27 05:42:02;;;;;;;10.27;4.20;;;13.60;99.90;;;;;;5114977;28;20198;-59
2022/10/27 05:44:30;;;;;;;8.23;3.67;;;13.60;99.90;;;;;;5114328;28;20183;-59
2022/10/27 05:47:00;;;;;;;5.03;2.97;;;13.70;99.90;;;;;;5114387;28;20187;-59
2022/10/27 05:49:28;;;;;;;7.73;3.17;;;13.70;99.90;;;;;;5114415;28;20565;-59
2022/10/27 05:51:56;;;;;;;4.00;2.80;;;13.80;99.90;;;;;;5074691;28;20199;-58
2022/10/27 05:54:25;;;;;;;6.47;2.90;;;13.90;99.90;;;;;;5102161;28;20190;-59
2022/10/27 05:56:53;;;;;;;6.47;3.30;;;14.00;99.90;;;;;;5113814;28;20191;-59
2022/10/27 05:59:21;;;;;;;4.60;2.70;;;14.10;99.90;;;;;;5113838;28;20285;-59
2022/10/27 06:01:49;;;;;;;2.97;2.40;;;14.20;99.90;;;;;;5114107;28;20194;-59
2022/10/27 06:04:19;;;;;;;8.50;3.10;;;14.20;99.90;;;;;;5114320;28;20574;-60
2022/10/27 06:06:47;;;;;;;4.00;2.57;;;14.20;99.90;;;;;;5103447;28;20190;-58
2022/10/27 06:09:18;;;;;;;5.17;2.53;;;14.30;99.90;;;;;;5095639;28;20765;-58
2022/10/27 06:11:46;;;;;;;4.33;2.33;;;14.30;99.90;;;;;;5095974;28;20714;-59
2022/10/27 06:14:14;;;;;;;2.30;2.07;;;14.30;99.90;;;;;;5076863;28;20206;-59
2022/10/27 06:16:42;;;;;;;3.23;2.20;;;14.40;99.90;;;;;;5075485;28;20569;-59
2022/10/27 06:19:10;;;;;;;3.00;2.37;;;14.40;99.90;;;;;;5093371;28;20237;-59
2022/10/27 06:21:40;;;;;;;4.87;2.20;;;14.40;99.90;;;;;;5093511;28;20191;-59
2022/10/27 06:24:08;;;;;;;4.70;2.43;;;14.40;99.90;;;;;;5093326;28;20191;-59
2022/10/27 06:26:37;;;;;;;4.10;2.30;;;14.40;99.90;;;;;;5075964;28;20202;-59
2022/10/27 06:29:05;;;;;;;2.93;1.90;;;14.30;99.90;;;;;;5093928;28;20192;-59
2022/10/27 06:31:33;;;;;;;3.60;2.40;;;14.30;99.90;;;;;;5093406;28;20215;-59
2022/10/27 06:34:02;;;;;;;6.03;1.97;;;14.40;99.90;;;;;;5094088;28;20187;-58
2022/10/27 06:36:30;;;;;;;3.13;2.10;;;14.50;99.90;;;;;;5082976;28;20199;-59
2022/10/27 06:39:00;;;;;;;6.20;1.83;;;14.60;99.90;;;;;;5110830;28;20190;-58
2022/10/27 06:41:28;;;;;;;5.70;2.43;;;14.80;99.90;;;;;;5094902;28;20207;-59
2022/10/27 06:43:56;;;;;;;3.90;2.40;;;14.80;99.90;;;;;;5107066;28;20202;-59
2022/10/27 06:46:24;;;;;;;4.63;1.93;;;14.80;99.90;;;;;;5098185;28;20507;-59
2022/10/27 06:48:56;;;;;;;3.40;2.20;;;14.90;99.90;;;;;;5105666;28;20194;-59
2022/10/27 06:51:24;;;;;;;3.80;2.00;;;14.90;99.90;;;;;;5118224;28;20186;-59
2022/10/27 06:53:55;;;;;;;4.50;2.07;;;14.90;99.90;;;;;;5117998;28;20272;-59
2022/10/27 06:56:25;;;;;;;4.70;2.40;;;14.90;99.90;;;;;;5117920;28;20183;-60
2022/10/27 06:58:54;;;;;;;3.80;2.23;;;14.90;99.90;;;;;;5099501;28;20190;-59
2022/10/27 07:01:22;;;;;;;5.87;2.10;;;15.00;99.90;;;;;;5099197;28;20558;-59
2022/10/27 07:03:51;;;;;;;2.43;2.23;;;15.00;99.90;;;;;;5117876;28;20661;-59
2022/10/27 07:06:19;;;;;;;6.77;1.87;;;15.10;99.90;;;;;;5117030;28;20281;-59
2022/10/27 07:08:48;;;;;;;5.23;2.00;;;15.10;99.90;;;;;;5117122;28;20194;-59
2022/10/27 07:11:17;;;;;;;2.77;1.77;;;15.20;99.90;;;;;;5117272;28;20245;-59
2022/10/27 07:13:47;;;;;;;2.63;1.93;;;15.10;99.90;;;;;;5117976;28;20194;-59
2022/10/27 07:16:15;;;;;;;3.17;2.10;;;15.20;99.90;;;;;;5117514;28;20202;-60
2022/10/27 07:18:44;;;;;;;6.10;2.20;;;15.30;99.90;;;;;;5099467;28;20195;-60
2022/10/27 07:21:12;;;;;;;5.10;2.10;;;15.40;99.90;;;;;;5098884;28;20214;-60
2022/10/27 07:23:42;;;;;;;5.20;2.00;;;15.40;99.90;;;;;;5102436;28;20199;-60
2022/10/27 07:26:11;;;;;;;3.10;2.27;;;15.50;99.90;;;;;;5096723;28;20191;-60
2022/10/27 07:28:39;;;;;;;3.97;2.00;;;15.60;99.90;;;;;;5099526;28;20183;-60
2022/10/27 07:31:09;;;;;;;4.70;1.90;;;15.70;99.90;;;;;;5116858;28;20195;-60
2022/10/27 07:33:37;;;;;;;4.63;1.83;;;15.80;99.90;;;;;;5108531;28;20683;-59
2022/10/27 07:36:05;;;;;;;5.07;1.90;;;15.80;99.90;;;;;;5096524;28;20185;-59
2022/10/27 07:38:35;;;;;;;4.33;1.90;;;16.00;99.90;;;;;;5096938;28;20197;-59
2022/10/27 07:41:03;;;;;;;11.00;2.10;;;16.10;99.90;;;;;;5102546;28;20871;-59
2022/10/27 07:43:32;;;;;;;5.10;2.50;;;16.10;99.90;;;;;;5078602;28;20596;-60
2022/10/27 07:46:02;;;;;;;5.30;1.77;;;16.30;99.90;;;;;;5096146;28;20218;-59
2022/10/27 07:48:32;;;;;;;5.90;2.00;;;16.30;99.90;;;;;;5096547;28;20266;-60
2022/10/27 07:51:00;;;;;;;8.43;2.00;;;16.30;99.90;;;;;;5096615;28;20200;-59
2022/10/27 07:53:28;;;;;;;5.27;1.70;;;16.40;99.90;;;;;;5095697;28;20220;-59
2022/10/27 07:55:58;;;;;;;2.67;1.83;;;16.40;99.90;;;;;;5096390;28;20693;-59
2022/10/27 07:58:26;;;;;;;3.60;1.97;;;16.40;99.90;;;;;;5081862;28;20203;-60
2022/10/27 08:00:54;;;;;;;4.73;1.90;;;16.40;99.90;;;;;;5116410;28;20216;-60
2022/10/27 08:03:25;;;;;;;6.10;1.80;;;16.40;99.90;;;;;;5081796;28;20705;-59
2022/10/27 08:05:57;;;;;;;5.40;1.97;;;16.50;99.90;;;;;;5100098;28;20197;-60
2022/10/27 08:08:25;;;;;;;3.03;1.93;;;16.60;99.90;;;;;;5116554;28;20199;-60
2022/10/27 08:10:53;;;;;;;4.13;1.97;;;16.60;99.90;;;;;;5116234;28;20745;-59
2022/10/27 08:13:21;;;;;;;1.83;1.73;;;16.60;99.90;;;;;;5116012;28;20203;-61
2022/10/27 08:15:50;;;;;;;3.37;2.03;;;16.70;99.90;;;;;;5116478;28;20204;-58
2022/10/27 08:18:18;;;;;;;4.97;1.90;;;16.70;99.90;;;;;;5116089;28;20193;-59
2022/10/27 08:20:47;;;;;;;2.83;1.90;;;16.80;99.90;;;;;;5116035;28;20206;-59
2022/10/27 08:23:20;;;;;;;5.40;1.90;;;16.90;99.90;;;;;;5116056;28;20201;-59
2022/10/27 08:25:49;;;;;;;9.60;2.20;;;17.00;99.90;;;;;;5115971;28;20671;-59
2022/10/27 08:28:17;;;;;;;2.10;1.90;;;17.00;99.90;;;;;;5115953;28;20201;-59
2022/10/27 08:30:46;;;;;;;3.03;1.87;;;17.10;99.90;;;;;;5115129;28;20194;-60
2022/10/27 08:33:20;;;;;;;4.80;2.20;;;17.10;99.90;;;;;;5095461;28;20197;-58
2022/10/27 08:35:50;;;;;;;6.33;2.23;;;17.20;99.90;;;;;;5095333;28;20198;-59
2022/10/27 08:38:20;;;;;;;5.00;2.23;;;17.20;99.90;;;;;;5077602;28;20192;-59
2022/10/27 08:41:06;;;;;;;3.57;2.00;;;17.30;99.90;;;;;;5095516;28;20207;-59
2022/10/27 08:43:53;;;;;;;4.93;2.00;;;17.40;99.90;;;;;;5118466;27;20242;-59
2022/10/27 08:46:26;;;;;;;5.10;2.10;;;17.50;99.90;;;;;;5131670;27;20197;-59
2022/10/27 08:48:58;;;;;;;3.97;2.10;;;17.70;99.90;;;;;;5115355;28;20195;-59
2022/10/27 08:51:27;;;;;;;9.00;2.53;;;17.80;99.90;;;;;;5096721;28;20688;-60
2022/10/27 08:53:58;;;;;;;4.23;2.10;;;17.90;99.90;;;;;;5097125;28;20202;-59
2022/10/27 08:56:35;;;;;;;4.70;2.10;;;18.00;99.90;;;;;;5115144;28;20205;-59
2022/10/27 08:59:04;;;;;;;6.77;2.47;;;18.10;99.90;;;;;;5115385;28;20281;-60
2022/10/27 09:01:38;;;;;;;2.97;2.20;;;18.20;99.90;;;;;;5115415;28;20203;-59
2022/10/27 09:04:26;;;;;;;4.33;2.40;;;18.40;99.90;;;;;;5114649;28;20229;-59
2022/10/27 09:07:10;;;;;;;4.93;2.17;;;18.50;99.90;;;;;;5079400;28;20220;-60
2022/10/27 09:09:46;;;;;;;2.10;2.00;;;18.60;99.90;;;;;;5100359;28;20274;-60
2022/10/27 09:12:25;;;;;;;4.87;2.47;;;18.60;99.90;;;;;;5076973;28;20245;-59
2022/10/27 09:15:16;;;;;;;2.90;2.43;;;18.70;99.90;;;;;;5095616;28;20191;-60
2022/10/27 09:17:48;;;;;;;6.40;2.53;;;18.70;99.90;;;;;;5096834;28;20198;-60
2022/10/27 09:20:23;;;;;;;5.77;2.33;;;18.70;99.90;;;;;;5104578;27;20337;-60
2022/10/27 09:22:54;;;;;;;7.73;2.60;;;18.80;99.90;;;;;;5114273;28;20218;-60
2022/10/27 09:25:24;;;;;;;6.23;2.40;;;18.80;99.90;;;;;;5114553;28;20587;-60
2022/10/27 09:27:55;;;;;;;5.90;2.50;;;18.90;99.90;;;;;;5078062;28;20199;-60
2022/10/27 09:30:23;;;;;;;8.47;2.80;;;18.90;99.90;;;;;;5113611;27;20199;-60
2022/10/27 09:32:55;;;;;;;6.97;2.60;;;18.90;99.90;;;;;;5111647;28;20277;-60
2022/10/27 09:35:25;;;;;;;7.27;2.13;;;18.90;99.90;;;;;;5111561;28;20202;-57
2022/10/27 09:37:55;;;;;;;8.60;2.50;;;18.90;99.90;;;;;;5096221;28;20199;-57
2022/10/27 09:40:25;;;;;;;7.17;2.50;;;18.90;99.90;;;;;;5114418;28;20187;-57
2022/10/27 09:42:56;;;;;;;4.90;2.63;;;18.80;99.90;;;;;;5114618;28;20213;-58
2022/10/27 09:45:26;;;;;;;5.67;2.97;;;18.90;99.90;;;;;;5114524;28;20206;-57
2022/10/27 09:47:56;;;;;;;7.83;2.83;;;19.10;99.90;;;;;;5114057;28;20201;-57
2022/10/27 09:50:28;;;;;;;7.50;3.00;;;19.20;99.90;;;;;;5102882;28;20270;-58
2022/10/27 09:52:57;;;;;;;6.67;3.03;;;19.40;99.90;;;;;;5113761;28;20633;-58
2022/10/27 09:55:48;;;;;;;8.77;2.53;;;19.60;99.90;;;;;;5096291;28;20196;-58
2022/10/27 09:58:17;;;;;;;5.47;2.60;;;19.70;99.90;;;;;;5091426;28;20195;-58
2022/10/27 10:00:55;;;;;;;3.53;2.53;;;19.60;99.90;;;;;;5094926;28;20229;-58
2022/10/27 10:04:06;;;;;;;6.30;2.30;;;19.70;99.90;;;;;;5093987;28;20191;-58
2022/10/27 10:07:07;;;;;;;4.63;2.47;;;19.80;99.90;;;;;;5076802;28;20196;-58
2022/10/27 10:09:38;;;;;;;10.53;2.97;;;19.80;99.90;;;;;;5103131;28;20195;-58
2022/10/27 10:12:22;;;;;;;5.60;2.53;;;19.90;99.90;;;;;;5087699;27;20186;-58
2022/10/27 10:14:52;;;;;;;7.40;2.77;;;20.10;99.90;;;;;;5077242;28;20195;-58
2022/10/27 10:17:23;;;;;;;6.77;2.77;;;20.20;99.90;;;;;;5084561;28;20194;-58
2022/10/27 10:19:54;;;;;;;4.40;2.50;;;20.30;99.90;;;;;;5113013;28;20297;-59
2022/10/27 10:22:26;;;;;;;2.70;2.23;;;20.30;99.90;;;;;;5095393;28;20211;-58
2022/10/27 10:24:56;;;;;;;8.83;2.70;;;20.40;99.90;;;;;;5113948;28;20526;-58
2022/10/27 10:27:29;;;;;;;7.77;2.60;;;20.50;99.90;;;;;;5105215;27;20189;-57
2022/10/27 10:30:00;;;;;;;9.50;2.80;;;20.50;99.90;;;;;;5127003;27;20270;-58
2022/10/27 10:32:32;;;;;;;6.80;2.83;;;20.70;99.90;;;;;;5113384;28;20201;-60
2022/10/27 10:35:01;;;;;;;8.63;2.67;;;20.90;99.90;;;;;;5113965;28;20190;-59
2022/10/27 10:37:38;;;;;;;8.00;2.70;;;21.30;99.90;;;;;;5113534;28;20195;-59
2022/10/27 10:40:28;;;;;;;12.07;3.33;;;21.40;99.90;;;;;;5107575;28;20196;-59
2022/10/27 10:43:14;;;;;;;8.27;2.93;;;21.40;99.90;;;;;;5102008;28;20211;-57
2022/10/27 10:45:43;;;;;;;8.43;2.77;;;21.30;99.90;;;;;;5095327;28;20191;-58
2022/10/27 10:48:28;;;;;;;10.40;2.70;;;21.40;99.90;;;;;;5113616;28;20285;-58
2022/10/27 10:50:57;;;;;;;5.50;2.70;;;21.40;99.90;;;;;;5103676;28;20232;-58
2022/10/27 10:53:29;;;;;;;9.77;2.50;;;21.60;99.90;;;;;;5092672;28;20534;-58
2022/10/27 10:56:02;;;;;;;9.57;2.73;;;21.90;99.90;;;;;;5113015;28;20201;-59
2022/10/27 10:58:35;;;;;;;10.17;3.20;;;22.30;99.90;;;;;;5106114;28;20198;-58
2022/10/27 11:01:06;;;;;;;6.20;2.87;;;22.40;99.90;;;;;;5086478;28;20199;-59
2022/10/27 11:03:42;;;;;;;3.43;2.23;;;22.50;99.90;;;;;;5104570;28;20672;-58
2022/10/27 11:06:18;;;;;;;9.90;3.07;;;22.70;99.90;;;;;;5101086;28;20195;-59
2022/10/27 11:08:57;;;;;;;4.93;2.63;;;22.60;99.90;;;;;;5110203;28;20216;-59
2022/10/27 11:11:29;;;;;;;9.23;2.90;;;22.30;99.90;;;;;;5103383;28;20585;-59
2022/10/27 11:14:03;;;;;;;8.47;3.00;;;22.00;99.90;;;;;;5111751;28;20537;-59
2022/10/27 11:16:33;;;;;;;11.87;2.57;;;21.80;99.90;;;;;;5107582;28;20202;-58
2022/10/27 11:19:05;;;;;;;3.47;2.47;;;21.70;99.90;;;;;;5112892;28;20191;-58
2022/10/27 11:21:38;;;;;;;8.83;2.80;;;21.70;99.90;;;;;;5110276;28;20207;-58
2022/10/27 11:24:13;;;;;;;10.07;2.57;;;21.70;99.90;;;;;;5094007;28;20645;-59
2022/10/27 11:26:48;;;;;;;8.17;2.70;;;21.80;99.90;;;;;;5096382;28;20190;-58
2022/10/27 11:29:21;;;;;;;7.30;2.60;;;22.00;99.90;;;;;;5087847;28;20227;-58
2022/10/27 11:31:59;;;;;;;4.50;2.83;;;22.10;99.90;;;;;;5116775;28;20216;-59
2022/10/27 11:34:38;;;;;;;7.00;2.87;;;22.00;99.90;;;;;;5117376;27;20706;-59
2022/10/27 11:37:11;;;;;;;5.50;2.60;;;21.80;99.90;;;;;;5133058;27;20192;-59
2022/10/27 11:39:46;;;;;;;7.10;3.00;;;21.90;99.90;;;;;;5116643;27;20745;-59
2022/10/27 11:42:25;;;;;;;6.67;2.40;;;21.90;99.90;;;;;;5117119;28;20210;-58
2022/10/27 11:45:05;;;;;;;10.30;3.03;;;22.00;99.90;;;;;;5096967;27;20199;-59
2022/10/27 11:47:39;;;;;;;11.10;2.93;;;22.00;99.90;;;;;;5115647;27;20279;-57
2022/10/27 11:50:13;;;;;;;10.20;2.80;;;22.00;99.90;;;;;;5098196;28;20191;-58
2022/10/27 11:52:45;;;;;;;7.00;3.17;;;22.00;99.90;;;;;;5111412;28;20546;-58
2022/10/27 11:55:16;;;;;;;10.27;2.77;;;22.10;99.90;;;;;;5098043;28;20569;-57
2022/10/27 11:57:51;;;;;;;11.27;3.00;;;22.30;99.90;;;;;;5115571;28;20195;-61
2022/10/27 12:00:24;;;;;;;7.67;3.43;;;22.40;99.90;;;;;;5123417;27;20199;-60
2022/10/27 12:03:20;;;;;;;8.23;2.63;;;22.50;99.90;;;;;;5106989;28;20667;-61
2022/10/27 12:05:53;;;;;;;7.80;2.93;;;22.50;99.90;;;;;;5115848;28;20282;-60
2022/10/27 12:08:33;;;;;;;3.93;3.23;;;22.40;99.90;;;;;;5116107;28;20202;-61
2022/10/27 12:11:18;;;;;;;10.37;3.00;;;22.30;99.90;;;;;;5115200;28;20228;-60
2022/10/27 12:13:54;;;;;;;8.33;3.40;;;22.30;99.90;;;;;;5092465;28;20207;-60
2022/10/27 12:16:29;;;;;;;11.10;3.23;;;22.40;99.90;;;;;;5097565;28;20701;-60
2022/10/27 12:19:01;;;;;;;8.90;3.10;;;22.40;99.90;;;;;;5115796;28;20202;-61
2022/10/27 12:21:36;;;;;;;5.77;3.10;;;22.40;99.90;;;;;;5109208;28;20648;-60
2022/10/27 12:24:09;;;;;;;8.83;3.27;;;22.40;99.90;;;;;;5115710;28;20206;-60
2022/10/27 12:26:42;;;;;;;6.70;3.40;;;22.30;99.90;;;;;;5111676;28;20195;-60
2022/10/27 12:29:12;;;;;;;6.53;2.83;;;22.30;99.90;;;;;;5079757;28;20215;-61
2022/10/27 12:31:47;;;;;;;8.47;2.97;;;22.20;99.90;;;;;;5080497;28;20186;-60
2022/10/27 12:34:16;;;;;;;8.27;3.13;;;22.20;99.90;;;;;;5101608;28;20192;-60
2022/10/27 12:36:50;;;;;;;10.67;3.30;;;22.20;99.90;;;;;;5120947;27;20194;-60
2022/10/27 12:39:25;;;;;;;10.50;3.43;;;22.10;99.90;;;;;;5120698;27;20220;-60
2022/10/27 12:42:03;;;;;;;6.20;3.00;;;22.10;99.90;;;;;;5107031;27;20186;-60
2022/10/27 12:44:39;;;;;;;7.33;2.80;;;22.10;99.90;;;;;;5106598;28;20215;-60
2022/10/27 12:47:33;;;;;;;7.63;3.10;;;22.10;99.90;;;;;;5102960;28;20270;-60
2022/10/27 12:50:17;;;;;;;7.97;2.93;;;22.00;99.90;;;;;;5083195;28;20202;-61
2022/10/27 12:52:53;;;;;;;9.27;3.23;;;22.00;99.90;;;;;;5115256;28;20194;-60
2022/10/27 12:55:40;;;;;;;4.40;2.67;;;21.90;99.90;;;;;;5094981;28;20198;-60
2022/10/27 12:58:16;;;;;;;3.20;2.50;;;21.90;99.90;;;;;;5114150;28;20208;-61
2022/10/27 13:00:51;;;;;;;8.97;2.80;;;21.80;99.90;;;;;;5079081;28;20187;-60
2022/10/27 13:04:07;;;;;;;7.53;2.37;;;21.90;99.90;;;;;;5113806;27;20223;-60
2022/10/27 13:07:07;;;;;;;7.77;2.83;;;22.00;99.90;;;;;;5024734;27;20208;-60
2022/10/27 13:10:08;;;;;;;5.10;2.53;;;22.10;99.90;;;;;;5112730;28;20557;-60
2022/10/27 13:12:54;;;;;;;6.53;2.70;;;22.10;99.90;;;;;;5088427;28;20196;-58
2022/10/27 13:15:53;;;;;;;7.33;3.13;;;22.10;99.90;;;;;;5114266;28;20301;-58
2022/10/27 13:19:04;;;;;;;6.90;2.63;;;22.10;99.90;;;;;;5110731;28;20592;-58
2022/10/27 13:21:38;;;;;;;4.53;2.73;;;22.10;99.90;;;;;;5111535;28;20652;-57
2022/10/27 13:24:18;;;;;;;7.67;3.00;;;22.10;99.90;;;;;;5096307;28;20209;-60